»·PEaware :: N211JA KPSP-KSBA

N211JA :: KPSP-KSBA

FLIGHT INFORMATION

Flight Status: Arrived
Operator: Privately registered:
United States
More flights under this callsign
Pilot: Jose A. (18565)
Aircraft: BEECH AIRCRAFT SUPER KING AIR COMMUTER
(BE20)
More flights by this aircraft type
Origin: KPSP Palm Springs Intl
United States
Destination: KSBA Santa Barbara Mun
United States
More flights between these airports :: More routes between these airports
Route: +CATH1 PSP V388 DEWAY POM VNY V186 DEANO V27 KWANG
File this flight plan on PilotEdge
Remarks: TEC route PSPP17
Altitude:
(Current/Filed)
16,000ft
Speed:
(Current/Filed)
460kts
Departed: 23-Apr-19 09:16 AM
Arrived: 23-Apr-19 10:07 AM
Distance/Time
Traveled:
169nm/0:51
Distance/Time
To Go:
Arrived

Flight Plot

Page will automatically refresh every two minutes.


Map Options




Map Legend


Flown Route
Filed Route
Departure Airport
Arrival Airport
Navaid (VOR, NDB)
Fix

Horizontal Profiles

Position Reports

Time Latitude Longitude Heading Altitude Ground
Speed
23-Apr-19 08:35 33.823287 -116.497526 51 481ft 0kts
23-Apr-19 08:36 33.823287 -116.497526 51 481ft 0kts
23-Apr-19 08:37 33.823287 -116.497526 51 481ft 0kts
23-Apr-19 08:39 33.823287 -116.497525 51 481ft 0kts
23-Apr-19 08:40 33.823288 -116.497524 51 481ft 0kts
23-Apr-19 08:41 33.823290 -116.497521 51 481ft 0kts
23-Apr-19 08:42 33.823291 -116.497519 51 481ft 0kts
23-Apr-19 08:43 33.823293 -116.497517 51 481ft 0kts
23-Apr-19 08:44 33.823294 -116.497515 51 481ft 0kts
23-Apr-19 08:45 33.823295 -116.497513 51 481ft 0kts
23-Apr-19 08:46 33.823297 -116.497510 51 481ft 0kts
23-Apr-19 08:47 33.823298 -116.497508 51 481ft 0kts
23-Apr-19 08:48 33.823300 -116.497506 51 481ft 0kts
23-Apr-19 08:49 33.823301 -116.497504 51 481ft 0kts
23-Apr-19 08:50 33.823302 -116.497502 51 481ft 0kts
23-Apr-19 08:51 33.823304 -116.497500 51 481ft 0kts
23-Apr-19 08:52 33.823305 -116.497498 51 481ft 0kts
23-Apr-19 08:53 33.823307 -116.497496 51 481ft 0kts
23-Apr-19 08:54 33.823308 -116.497494 51 481ft 0kts
23-Apr-19 08:55 33.823309 -116.497492 51 481ft 0kts
23-Apr-19 08:56 33.823311 -116.497490 51 481ft 0kts
23-Apr-19 08:56 33.823312 -116.497488 51 481ft 0kts
23-Apr-19 08:58 33.823314 -116.497485 51 481ft 0kts
23-Apr-19 08:59 33.823315 -116.497483 51 481ft 0kts
23-Apr-19 08:59 33.823316 -116.497482 51 481ft 0kts
23-Apr-19 09:00 33.823317 -116.497479 51 481ft 0kts
23-Apr-19 09:02 33.823319 -116.497477 51 481ft 0kts
23-Apr-19 09:02 33.823320 -116.497475 51 481ft 0kts
23-Apr-19 09:03 33.823322 -116.497473 51 481ft 0kts
23-Apr-19 09:05 33.823186 -116.497145 143 481ft 3kts
23-Apr-19 09:05 33.823357 -116.497957 320 481ft 6kts
23-Apr-19 09:06 33.824177 -116.498443 81 481ft 8kts
23-Apr-19 09:07 33.822686 -116.496909 186 481ft 4kts
23-Apr-19 09:08 33.820739 -116.495619 152 481ft 11kts
23-Apr-19 09:09 33.819628 -116.496428 232 481ft 9kts
23-Apr-19 09:10 33.819288 -116.496972 234 481ft 0kts
23-Apr-19 09:11 33.819287 -116.496973 234 481ft 0kts
23-Apr-19 09:12 33.819287 -116.496974 234 481ft 0kts
23-Apr-19 09:13 33.819267 -116.497008 234 481ft 1kts
23-Apr-19 09:14 33.819903 -116.498959 323 481ft 28kts
23-Apr-19 09:15 33.845894 -116.522192 322 1241ft 155kts
23-Apr-19 09:16 33.878249 -116.554977 320 3329ft 149kts
23-Apr-19 09:17 33.905739 -116.538441 93 5175ft 173kts
23-Apr-19 09:18 33.883300 -116.484745 110 7102ft 184kts
23-Apr-19 09:19 33.908027 -116.458760 341 8889ft 160kts
23-Apr-19 09:20 33.934201 -116.504731 284 10424ft 188kts
23-Apr-19 09:21 33.941233 -116.567541 280 11858ft 196kts
23-Apr-19 09:22 33.946362 -116.641178 271 12049ft 240kts
23-Apr-19 09:23 33.948233 -116.722462 272 12080ft 258kts
23-Apr-19 09:24 33.956352 -116.807733 280 12095ft 263kts
23-Apr-19 09:25 33.965679 -116.882702 281 12103ft 263kts
23-Apr-19 09:26 33.975657 -116.970462 282 12076ft 266kts
23-Apr-19 09:27 33.988803 -117.058448 280 12036ft 266kts
23-Apr-19 09:28 34.000055 -117.146811 281 12029ft 268kts
23-Apr-19 09:29 34.009616 -117.227550 283 12023ft 269kts
23-Apr-19 09:30 34.020357 -117.317107 283 12024ft 270kts
23-Apr-19 09:31 34.031750 -117.406708 283 12013ft 267kts
23-Apr-19 09:32 34.042576 -117.496292 285 12013ft 273kts
23-Apr-19 09:33 34.053855 -117.587368 282 12016ft 275kts
23-Apr-19 09:34 34.064827 -117.678997 284 12017ft 276kts
23-Apr-19 09:35 34.073158 -117.745281 281 12028ft 275kts
23-Apr-19 09:36 34.087187 -117.835260 290 12024ft 271kts
23-Apr-19 09:37 34.106396 -117.923069 289 12017ft 270kts
23-Apr-19 09:38 34.124974 -118.011091 290 12015ft 272kts
23-Apr-19 09:39 34.143432 -118.099824 289 12015ft 273kts
23-Apr-19 09:40 34.161197 -118.189420 289 12012ft 273kts
23-Apr-19 09:41 34.179506 -118.277225 290 12009ft 273kts
23-Apr-19 09:42 34.198024 -118.366308 289 12005ft 273kts
23-Apr-19 09:43 34.216065 -118.455662 290 12022ft 275kts
23-Apr-19 09:44 34.240019 -118.542485 298 12015ft 272kts
23-Apr-19 09:45 34.269583 -118.626582 299 12017ft 272kts
23-Apr-19 09:46 34.295691 -118.701215 297 12032ft 270kts
23-Apr-19 09:47 34.324156 -118.785180 297 12033ft 269kts
23-Apr-19 09:48 34.351886 -118.866818 297 11441ft 256kts
23-Apr-19 09:49 34.353959 -118.949093 265 10340ft 241kts
23-Apr-19 09:50 34.346299 -119.027073 267 9150ft 227kts
23-Apr-19 09:51 34.340382 -119.102224 267 7849ft 222kts
23-Apr-19 09:52 34.334882 -119.175818 266 6549ft 218kts
23-Apr-19 09:53 34.329529 -119.246622 266 5996ft 204kts
23-Apr-19 09:54 34.324177 -119.314345 266 5993ft 199kts
23-Apr-19 09:55 34.319186 -119.382193 266 5069ft 193kts
23-Apr-19 09:56 34.314775 -119.441145 266 5005ft 175kts
23-Apr-19 09:57 34.311455 -119.502968 274 4410ft 196kts
23-Apr-19 09:58 34.323226 -119.563350 287 4002ft 175kts
23-Apr-19 09:59 34.340197 -119.615096 304 3703ft 157kts
23-Apr-19 10:00 34.367503 -119.656804 321 2660ft 155kts
23-Apr-19 10:01 34.399567 -119.687684 320 1859ft 137kts
23-Apr-19 10:02 34.422145 -119.721351 295 1398ft 129kts
23-Apr-19 10:03 34.429804 -119.754070 274 927ft 125kts
23-Apr-19 10:04 34.429036 -119.794729 266 530ft 115kts
23-Apr-19 10:05 34.427920 -119.834380 265 59ft 121kts
23-Apr-19 10:06 34.426942 -119.851767 173 14ft 10kts
23-Apr-19 10:07 34.426752 -119.851687 151 14ft 0kts
23-Apr-19 10:08 34.426501 -119.848210 88 14ft 14kts
23-Apr-19 10:09 34.426621 -119.841850 91 14ft 14kts
23-Apr-19 10:10 34.423742 -119.840339 131 14ft 8kts
23-Apr-19 10:11 34.422601 -119.838131 109 14ft 11kts
23-Apr-19 10:12 34.422254 -119.836755 258 14ft 0kts
23-Apr-19 10:13 34.422254 -119.836757 258 14ft 0kts
23-Apr-19 10:14 34.422254 -119.836759 258 14ft 0kts
23-Apr-19 10:15 34.422254 -119.836759 258 14ft 0kts

Navigation Log

Ident Type
Flight plan parsing failed, navigation log unavailable